sensor_id;sensor_type;location;lat;lon;timestamp;temperature;humidity
5286;DHT22;2665;53.112;7.358;2023-07-16T00:02:04;17.00;1.00
5286;DHT22;2665;53.112;7.358;2023-07-16T00:04:31;17.00;1.00
5286;DHT22;2665;53.112;7.358;2023-07-16T00:06:56;17.00;1.00
5286;DHT22;2665;53.112;7.358;2023-07-16T00:09:22;17.00;1.00
5286;DHT22;2665;53.112;7.358;2023-07-16T00:11:47;17.00;1.00
5286;DHT22;2665;53.112;7.358;2023-07-16T00:14:13;17.00;1.00
5286;DHT22;2665;53.112;7.358;2023-07-16T00:16:39;17.00;1.00
5286;DHT22;2665;53.112;7.358;2023-07-16T00:19:04;17.00;1.00
5286;DHT22;2665;53.112;7.358;2023-07-16T00:21:30;17.00;1.00
5286;DHT22;2665;53.112;7.358;2023-07-16T00:23:56;17.00;99.90
5286;DHT22;2665;53.112;7.358;2023-07-16T00:26:22;17.00;99.90
5286;DHT22;2665;53.112;7.358;2023-07-16T00:28:47;17.00;99.90
5286;DHT22;2665;53.112;7.358;2023-07-16T14:33:43;24.40;1.00
5286;DHT22;2665;53.112;7.358;2023-07-16T14:36:09;24.30;1.00
5286;DHT22;2665;53.112;7.358;2023-07-16T14:38:34;24.80;1.00
5286;DHT22;2665;53.112;7.358;2023-07-16T14:41:00;25.20;1.00
5286;DHT22;2665;53.112;7.358;2023-07-16T14:43:25;25.20;1.00
5286;DHT22;2665;53.112;7.358;2023-07-16T14:45:51;24.90;1.00
5286;DHT22;2665;53.112;7.358;2023-07-16T14:48:17;24.30;1.00
5286;DHT22;2665;53.112;7.358;2023-07-16T14:50:42;24.10;1.00
5286;DHT22;2665;53.112;7.358;2023-07-16T14:53:08;23.70;1.00
5286;DHT22;2665;53.112;7.358;2023-07-16T14:55:34;23.50;1.00
5286;DHT22;2665;53.112;7.358;2023-07-16T14:57:59;23.60;1.00
5286;DHT22;2665;53.112;7.358;2023-07-16T15:00:25;23.60;1.00
5286;DHT22;2665;53.112;7.358;2023-07-16T15:02:51;23.20;1.00
5286;DHT22;2665;53.112;7.358;2023-07-16T15:05:17;22.90;1.00
5286;DHT22;2665;53.112;7.358;2023-07-16T15:07:43;22.50;1.00
5286;DHT22;2665;53.112;7.358;2023-07-16T15:10:09;22.30;1.00
5286;DHT22;2665;53.112;7.358;2023-07-16T15:12:35;22.20;1.00
5286;DHT22;2665;53.112;7.358;2023-07-16T15:39:23;22.40;1.00
5286;DHT22;2665;53.112;7.358;2023-07-16T15:41:49;22.50;1.00
5286;DHT22;2665;53.112;7.358;2023-07-16T15:44:15;23.20;1.00
5286;DHT22;2665;53.112;7.358;2023-07-16T15:46:42;23.50;1.00
5286;DHT22;2665;53.112;7.358;2023-07-16T15:49:07;23.20;1.00
5286;DHT22;2665;53.112;7.358;2023-07-16T15:51:33;23.10;1.00
5286;DHT22;2665;53.112;7.358;2023-07-16T15:54:01;22.70;1.00
5286;DHT22;2665;53.112;7.358;2023-07-16T15:56:27;22.30;1.00
5286;DHT22;2665;53.112;7.358;2023-07-16T15:58:53;22.00;1.00
5286;DHT22;2665;53.112;7.358;2023-07-16T16:01:18;21.80;1.00
5286;DHT22;2665;53.112;7.358;2023-07-16T16:03:44;21.60;1.00
5286;DHT22;2665;53.112;7.358;2023-07-16T16:06:11;21.50;1.00
5286;DHT22;2665;53.112;7.358;2023-07-16T16:08:36;21.50;1.00
5286;DHT22;2665;53.112;7.358;2023-07-16T16:11:03;21.50;1.00
5286;DHT22;2665;53.112;7.358;2023-07-16T16:13:29;22.10;1.00
5286;DHT22;2665;53.112;7.358;2023-07-16T16:15:55;22.70;1.00
5286;DHT22;2665;53.112;7.358;2023-07-16T16:18:22;22.60;1.00
5286;DHT22;2665;53.112;7.358;2023-07-16T16:20:48;22.30;1.00
5286;DHT22;2665;53.112;7.358;2023-07-16T16:23:14;22.00;1.00
5286;DHT22;2665;53.112;7.358;2023-07-16T16:25:40;21.70;1.00
5286;DHT22;2665;53.112;7.358;2023-07-16T16:28:09;21.50;1.00
5286;DHT22;2665;53.112;7.358;2023-07-16T16:45:16;21.80;1.00
5286;DHT22;2665;53.112;7.358;2023-07-16T16:47:42;21.90;1.00
5286;DHT22;2665;53.112;7.358;2023-07-16T16:50:08;22.90;1.00
5286;DHT22;2665;53.112;7.358;2023-07-16T16:52:34;23.80;1.00
5286;DHT22;2665;53.112;7.358;2023-07-16T16:55:03;24.40;1.00
5286;DHT22;2665;53.112;7.358;2023-07-16T16:57:30;24.70;1.00
5286;DHT22;2665;53.112;7.358;2023-07-16T16:59:56;25.10;1.00
5286;DHT22;2665;53.112;7.358;2023-07-16T17:02:22;24.70;1.00
5286;DHT22;2665;53.112;7.358;2023-07-16T17:04:48;24.80;1.00
5286;DHT22;2665;53.112;7.358;2023-07-16T17:07:14;24.70;1.00
5286;DHT22;2665;53.112;7.358;2023-07-16T17:09:40;24.30;1.00
5286;DHT22;2665;53.112;7.358;2023-07-16T17:12:09;23.50;1.00
5286;DHT22;2665;53.112;7.358;2023-07-16T17:14:35;22.90;1.00
5286;DHT22;2665;53.112;7.358;2023-07-16T17:17:01;22.70;1.00
5286;DHT22;2665;53.112;7.358;2023-07-16T17:19:28;23.10;1.00
5286;DHT22;2665;53.112;7.358;2023-07-16T17:21:53;23.40;1.00
5286;DHT22;2665;53.112;7.358;2023-07-16T17:24:19;23.80;1.00
5286;DHT22;2665;53.112;7.358;2023-07-16T17:26:45;24.10;1.00
5286;DHT22;2665;53.112;7.358;2023-07-16T17:29:11;24.60;1.00
5286;DHT22;2665;53.112;7.358;2023-07-16T17:31:36;24.70;1.00
5286;DHT22;2665;53.112;7.358;2023-07-16T17:34:02;24.50;1.00
5286;DHT22;2665;53.112;7.358;2023-07-16T17:36:29;24.10;1.00
5286;DHT22;2665;53.112;7.358;2023-07-16T17:38:54;23.40;1.00
5286;DHT22;2665;53.112;7.358;2023-07-16T17:41:20;22.80;1.00
5286;DHT22;2665;53.112;7.358;2023-07-16T17:43:46;22.20;1.00
5286;DHT22;2665;53.112;7.358;2023-07-16T17:46:12;22.00;1.00
5286;DHT22;2665;53.112;7.358;2023-07-16T17:48:37;21.60;1.00
5286;DHT22;2665;53.112;7.358;2023-07-16T17:51:03;21.30;1.00
5286;DHT22;2665;53.112;7.358;2023-07-16T17:53:30;21.30;1.00
5286;DHT22;2665;53.112;7.358;2023-07-16T17:55:55;21.10;1.00
